createdAt,value
2018-12-21T00:00:59.156Z,4.90
2018-12-21T00:05:50.059Z,4.90
2018-12-21T00:10:40.980Z,4.80
2018-12-21T00:15:31.894Z,4.80
2018-12-21T00:20:22.834Z,4.80
2018-12-21T00:25:13.745Z,4.80
2018-12-21T00:30:04.661Z,4.80
2018-12-21T00:35:01.863Z,4.80
2018-12-21T00:39:59.726Z,4.80
2018-12-21T00:44:50.646Z,4.80
2018-12-21T00:49:42.286Z,4.70
2018-12-21T00:54:33.936Z,4.90
2018-12-21T00:59:25.589Z,4.70
2018-12-21T01:04:17.243Z,4.80
2018-12-21T01:09:08.155Z,4.70
2018-12-21T01:14:06.164Z,4.80
2018-12-21T01:18:57.088Z,4.80
2018-12-21T01:23:47.990Z,4.80
2018-12-21T01:28:38.899Z,4.80
2018-12-21T01:33:29.850Z,4.90
2018-12-21T01:38:22.248Z,4.90
2018-12-21T01:43:13.164Z,4.90
2018-12-21T01:48:04.070Z,4.90
2018-12-21T01:52:55.728Z,5.00
2018-12-21T01:57:46.655Z,4.90
2018-12-21T02:02:37.575Z,5.00
2018-12-21T02:07:28.493Z,5.00
2018-12-21T02:12:19.413Z,5.00
2018-12-21T02:17:10.327Z,5.00
2018-12-21T02:22:01.251Z,5.00
2018-12-21T02:26:52.167Z,5.00
2018-12-21T02:31:43.062Z,5.10
2018-12-21T02:36:33.993Z,5.10
2018-12-21T02:41:24.894Z,5.10
2018-12-21T02:46:15.828Z,5.10
2018-12-21T02:51:06.741Z,5.10
2018-12-21T02:55:57.806Z,5.10
2018-12-21T03:00:48.717Z,5.20
2018-12-21T03:05:39.628Z,5.20
2018-12-21T03:10:30.552Z,5.20
2018-12-21T03:15:21.457Z,5.30
2018-12-21T03:20:12.424Z,5.30
2018-12-21T03:25:04.069Z,5.30
2018-12-21T03:30:02.785Z,5.40
2018-12-21T03:34:53.722Z,5.30
2018-12-21T03:39:44.628Z,5.40
2018-12-21T03:44:35.543Z,5.40
2018-12-21T03:49:27.244Z,5.40
2018-12-21T03:54:18.155Z,5.40
2018-12-21T03:59:09.067Z,5.40
2018-12-21T04:03:59.974Z,5.50
2018-12-21T04:08:50.888Z,5.50
2018-12-21T04:13:41.818Z,5.50
2018-12-21T04:18:32.731Z,5.50
2018-12-21T04:23:23.666Z,5.50
2018-12-21T04:28:14.580Z,5.50
2018-12-21T04:33:05.511Z,5.50
2018-12-21T04:37:56.410Z,5.50
2018-12-21T04:42:47.314Z,5.60
2018-12-21T04:47:38.276Z,5.60
2018-12-21T04:52:29.208Z,5.60
2018-12-21T04:57:20.864Z,5.60
2018-12-21T05:02:11.770Z,5.60
2018-12-21T05:07:12.078Z,5.60
2018-12-21T05:11:54.419Z,5.60
2018-12-21T05:16:46.080Z,5.60
2018-12-21T05:21:36.993Z,5.60
2018-12-21T05:26:27.920Z,5.60
2018-12-21T05:31:27.956Z,5.60
2018-12-21T05:36:09.855Z,5.60
2018-12-21T05:41:00.771Z,5.60
2018-12-21T05:45:51.961Z,5.60
2018-12-21T05:50:42.865Z,5.60
2018-12-21T05:55:33.775Z,5.60
2018-12-21T06:00:24.687Z,5.60
2018-12-21T06:05:15.600Z,5.60
2018-12-21T06:10:06.516Z,5.60
2018-12-21T06:14:57.422Z,5.60
2018-12-21T06:19:48.340Z,5.70
2018-12-21T06:24:39.252Z,5.60
2018-12-21T06:29:30.238Z,5.70
2018-12-21T06:34:21.875Z,5.70
2018-12-21T06:39:12.774Z,5.60
2018-12-21T06:44:03.688Z,5.70
2018-12-21T06:48:54.774Z,5.70
2018-12-21T06:53:45.688Z,5.70
2018-12-21T06:58:36.595Z,5.70
2018-12-21T07:03:27.511Z,5.70
2018-12-21T07:08:18.504Z,5.70
2018-12-21T07:13:09.444Z,5.70
2018-12-21T07:18:00.391Z,5.70
2018-12-21T07:22:51.364Z,5.70
2018-12-21T07:27:42.283Z,5.60
2018-12-21T07:32:33.187Z,5.60
2018-12-21T07:37:24.886Z,5.60
2018-12-21T07:42:15.794Z,5.60
2018-12-21T07:47:06.758Z,5.60
2018-12-21T07:51:57.674Z,5.60
2018-12-21T07:56:48.616Z,5.60
2018-12-21T08:01:39.624Z,5.60
2018-12-21T08:06:30.643Z,5.60
2018-12-21T08:11:21.576Z,5.60
2018-12-21T08:16:12.638Z,5.60
2018-12-21T08:21:03.612Z,5.60
2018-12-21T08:25:56.010Z,5.50
2018-12-21T08:30:46.915Z,5.50
2018-12-21T08:35:37.826Z,5.50
2018-12-21T08:40:29.471Z,5.50
2018-12-21T08:45:20.375Z,5.50
2018-12-21T08:50:12.025Z,5.50
2018-12-21T08:55:02.998Z,5.50
2018-12-21T08:59:53.907Z,5.50
2018-12-21T09:04:44.821Z,5.50
2018-12-21T09:09:35.730Z,5.50
2018-12-21T09:14:26.660Z,5.50
2018-12-21T09:19:17.571Z,5.50
2018-12-21T09:24:08.483Z,5.60
2018-12-21T09:28:59.387Z,5.60
2018-12-21T09:33:50.286Z,5.60
2018-12-21T09:38:41.944Z,5.60
2018-12-21T09:43:32.860Z,5.60
2018-12-21T09:48:23.874Z,5.60
2018-12-21T09:53:14.731Z,5.70
2018-12-21T09:58:05.646Z,5.70
2018-12-21T10:02:56.557Z,5.70
2018-12-21T10:07:47.500Z,5.70
2018-12-21T10:12:38.406Z,5.80
2018-12-21T10:17:29.320Z,5.80
2018-12-21T10:22:20.268Z,5.80
2018-12-21T10:27:11.175Z,5.80
2018-12-21T10:32:02.822Z,5.90
2018-12-21T10:36:54.484Z,5.90
2018-12-21T10:41:45.480Z,5.90
2018-12-21T10:46:37.143Z,6.00
2018-12-21T10:51:28.053Z,6.00
2018-12-21T10:56:19.704Z,6.00
2018-12-21T11:01:10.630Z,6.00
2018-12-21T11:06:01.530Z,6.10
2018-12-21T11:10:53.179Z,6.10
2018-12-21T11:15:44.082Z,6.10
2018-12-21T11:20:35.734Z,6.20
2018-12-21T11:25:26.647Z,6.20
2018-12-21T11:30:17.606Z,6.20
2018-12-21T11:35:08.509Z,6.20
2018-12-21T11:39:59.532Z,6.30
2018-12-21T11:44:50.391Z,6.30
2018-12-21T11:49:41.308Z,6.30
2018-12-21T11:54:33.060Z,6.40
2018-12-21T11:59:23.955Z,6.30
2018-12-21T12:04:14.867Z,6.30
2018-12-21T12:09:06.649Z,6.40
2018-12-21T12:13:57.491Z,6.40
2018-12-21T12:18:48.395Z,6.40
2018-12-21T12:23:39.303Z,6.40
2018-12-21T12:28:30.233Z,6.40
2018-12-21T12:33:21.140Z,6.50
2018-12-21T12:38:12.803Z,6.50
2018-12-21T12:43:03.706Z,6.50
2018-12-21T12:47:54.623Z,6.50
2018-12-21T12:52:45.600Z,6.50
2018-12-21T12:57:36.532Z,6.50
2018-12-21T13:02:28.273Z,6.50
2018-12-21T13:07:19.918Z,6.50
2018-12-21T13:12:11.568Z,6.40
2018-12-21T13:17:02.470Z,6.50
2018-12-21T13:21:54.109Z,6.40
2018-12-21T13:26:45.762Z,6.40
2018-12-21T13:31:36.666Z,6.40
2018-12-21T13:36:28.323Z,6.40
2018-12-21T13:41:19.241Z,6.40
2018-12-21T13:46:10.222Z,6.50
2018-12-21T13:51:01.128Z,6.40
2018-12-21T13:55:52.047Z,6.40
2018-12-21T14:00:43.086Z,6.40
2018-12-21T14:05:34.751Z,6.40
2018-12-21T14:10:25.667Z,6.40
2018-12-21T14:15:16.597Z,6.40
2018-12-21T14:20:07.503Z,6.40
2018-12-21T14:24:58.413Z,6.40
2018-12-21T14:29:49.332Z,6.40
2018-12-21T14:34:40.246Z,6.50
2018-12-21T14:39:31.896Z,6.40
2018-12-21T14:44:22.818Z,6.40
2018-12-21T14:49:13.729Z,6.40
2018-12-21T14:54:04.659Z,6.40
2018-12-21T14:58:55.576Z,6.40
2018-12-21T15:03:46.515Z,6.40
2018-12-21T15:08:37.432Z,6.40
2018-12-21T15:13:28.388Z,6.40
2018-12-21T15:18:19.297Z,6.40
2018-12-21T15:23:10.224Z,6.50
2018-12-21T15:28:01.891Z,6.50
2018-12-21T15:32:53.544Z,6.50
2018-12-21T15:37:44.453Z,6.40
2018-12-21T15:42:35.423Z,6.40
2018-12-21T15:47:26.399Z,6.50
2018-12-21T15:52:17.309Z,6.50
2018-12-21T15:57:08.221Z,6.50
2018-12-21T16:01:59.134Z,6.50
2018-12-21T16:06:50.779Z,6.50
2018-12-21T16:11:41.700Z,6.50
2018-12-21T16:16:32.595Z,6.50
2018-12-21T16:21:24.252Z,6.60
2018-12-21T16:26:15.166Z,6.50
2018-12-21T16:31:06.832Z,6.60
2018-12-21T16:35:57.735Z,6.60
2018-12-21T16:40:48.708Z,6.60
2018-12-21T16:45:39.742Z,6.60
2018-12-21T16:50:30.657Z,6.60
2018-12-21T16:55:21.554Z,6.70
2018-12-21T17:00:12.454Z,6.70
2018-12-21T17:05:03.355Z,6.70
2018-12-21T17:09:54.272Z,6.70
2018-12-21T17:14:45.184Z,6.70
2018-12-21T17:19:36.101Z,6.70
2018-12-21T17:24:27.039Z,6.70
2018-12-21T17:29:18.075Z,6.80
2018-12-21T17:34:09.002Z,6.70
2018-12-21T17:38:59.920Z,6.80
2018-12-21T17:43:50.845Z,6.80
2018-12-21T17:48:41.768Z,6.80
2018-12-21T17:53:32.669Z,6.90
2018-12-21T17:58:23.580Z,6.90
2018-12-21T18:03:14.755Z,6.90
2018-12-21T18:08:06.429Z,7.10
2018-12-21T18:12:57.347Z,7.10
2018-12-21T18:17:48.269Z,7.20
2018-12-21T18:22:39.235Z,7.20
2018-12-21T18:27:30.135Z,7.30
2018-12-21T18:32:21.047Z,7.40
2018-12-21T18:37:11.973Z,7.40
2018-12-21T18:42:02.882Z,7.50
2018-12-21T18:46:53.795Z,7.50
2018-12-21T18:51:44.707Z,7.60
2018-12-21T18:56:35.622Z,7.60
2018-12-21T19:01:26.535Z,7.70
2018-12-21T19:06:17.447Z,7.70
2018-12-21T19:11:08.411Z,7.80
2018-12-21T19:15:59.433Z,7.90
2018-12-21T19:20:51.078Z,8.00
2018-12-21T19:25:42.725Z,8.10
2018-12-21T19:30:34.384Z,8.20
2018-12-21T19:35:28.754Z,8.10
2018-12-21T19:40:16.239Z,8.20
2018-12-21T19:45:07.196Z,8.20
2018-12-21T19:49:58.108Z,8.30
2018-12-21T19:54:49.021Z,8.30
2018-12-21T19:59:40.210Z,8.30
2018-12-21T20:04:31.167Z,8.30
2018-12-21T20:09:22.075Z,8.30
2018-12-21T20:14:13.032Z,8.30
2018-12-21T20:19:04.688Z,8.40
2018-12-21T20:23:56.395Z,8.40
2018-12-21T20:28:47.398Z,8.40
2018-12-21T20:33:38.306Z,8.40
2018-12-21T20:38:29.219Z,8.40
2018-12-21T20:43:20.167Z,8.50
2018-12-21T20:48:11.075Z,8.50
2018-12-21T20:53:01.988Z,8.50
2018-12-21T20:57:52.893Z,8.60
2018-12-21T21:02:43.836Z,8.60
2018-12-21T21:07:34.866Z,8.60
2018-12-21T21:12:25.860Z,8.60
2018-12-21T21:17:17.363Z,8.70
2018-12-21T21:22:07.920Z,8.70
2018-12-21T21:26:58.934Z,8.80
2018-12-21T21:31:49.859Z,8.80
2018-12-21T21:36:40.878Z,8.80
2018-12-21T21:41:31.908Z,8.90
2018-12-21T21:46:22.919Z,8.90
2018-12-21T21:51:14.750Z,9.00
2018-12-21T21:56:05.679Z,8.90
2018-12-21T22:00:56.712Z,9.00
2018-12-21T22:05:47.732Z,9.00
2018-12-21T22:10:38.742Z,9.10
2018-12-21T22:15:29.768Z,9.10
2018-12-21T22:20:20.684Z,9.10
2018-12-21T22:25:11.687Z,9.10
2018-12-21T22:30:02.612Z,9.10
2018-12-21T22:34:53.514Z,9.20
2018-12-21T22:39:44.461Z,9.20
2018-12-21T22:44:35.498Z,9.10
2018-12-21T22:49:27.152Z,9.20
2018-12-21T22:54:18.856Z,9.20
2018-12-21T22:59:09.869Z,9.10
2018-12-21T23:04:01.513Z,9.10
2018-12-21T23:08:52.435Z,9.10
2018-12-21T23:13:43.481Z,9.10
2018-12-21T23:18:35.182Z,9.10
2018-12-21T23:23:26.155Z,9.10
2018-12-21T23:28:17.064Z,9.10
2018-12-21T23:33:08.044Z,9.10
2018-12-21T23:37:59.066Z,9.10
2018-12-21T23:42:49.962Z,9.10
2018-12-21T23:47:40.898Z,9.10
2018-12-21T23:52:32.657Z,9.10
2018-12-21T23:57:23.564Z,9.10
